createdAt,value
2023-04-01T00:00:59.503Z,1.00
2023-04-01T00:04:03.269Z,1.23
2023-04-01T00:07:05.595Z,1.20
2023-04-01T00:10:09.772Z,1.20
2023-04-01T00:13:12.134Z,0.68
2023-04-01T00:16:21.842Z,1.00
2023-04-01T00:19:24.940Z,0.95
2023-04-01T00:22:27.442Z,0.70
2023-04-01T00:25:30.383Z,0.73
2023-04-01T00:28:35.248Z,0.90
2023-04-01T00:31:37.725Z,0.65
2023-04-01T00:34:40.931Z,0.70
2023-04-01T00:37:43.189Z,0.80
2023-04-01T00:40:47.712Z,0.68
2023-04-01T00:43:52.211Z,0.80
2023-04-01T00:46:54.958Z,0.70
2023-04-01T00:49:57.232Z,0.90
2023-04-01T00:53:01.821Z,0.90
2023-04-01T00:56:10.813Z,0.70
2023-04-01T00:59:17.120Z,0.63
2023-04-01T01:02:20.506Z,0.93
2023-04-01T01:05:48.448Z,1.27
2023-04-01T01:09:16.299Z,0.80
2023-04-01T01:12:42.263Z,1.00
2023-04-01T01:16:05.087Z,0.63
2023-04-01T01:19:32.695Z,0.63
2023-04-01T01:22:43.651Z,0.95
2023-04-01T01:25:53.655Z,1.30
2023-04-01T01:29:01.814Z,1.10
2023-04-01T01:32:10.415Z,0.73
2023-04-01T01:35:47.214Z,1.20
2023-04-01T01:38:55.011Z,0.80
2023-04-01T01:42:01.003Z,0.90
2023-04-01T01:45:06.442Z,0.90
2023-04-01T01:48:10.300Z,0.80
2023-04-01T01:51:12.724Z,1.00
2023-04-01T01:54:18.066Z,0.80
2023-04-01T01:57:29.523Z,0.70
2023-04-01T02:00:36.439Z,0.77
2023-04-01T02:03:40.802Z,0.90
2023-04-01T02:06:53.508Z,0.63
2023-04-01T02:09:56.502Z,1.15
2023-04-01T02:13:02.842Z,0.70
2023-04-01T02:16:14.683Z,0.88
2023-04-01T02:19:23.722Z,0.80
2023-04-01T02:22:30.872Z,0.57
2023-04-01T02:25:36.980Z,0.60
2023-04-01T02:28:42.504Z,0.70
2023-04-01T02:31:45.148Z,0.50
2023-04-01T02:34:49.033Z,0.60
2023-04-01T02:37:54.892Z,0.88
2023-04-01T02:41:00.657Z,0.60
2023-04-01T02:44:04.080Z,0.70
2023-04-01T02:47:06.488Z,0.75
2023-04-01T02:50:09.795Z,0.80
2023-04-01T02:53:12.403Z,0.70
2023-04-01T02:56:14.648Z,0.70
2023-04-01T02:59:16.927Z,0.83
2023-04-01T03:02:19.584Z,0.90
2023-04-01T03:05:22.299Z,0.75
2023-04-01T03:08:24.563Z,1.00
2023-04-01T03:11:27.244Z,0.70
2023-04-01T03:14:29.633Z,0.77
2023-04-01T03:17:32.609Z,0.80
2023-04-01T03:20:35.595Z,5.68
2023-04-01T03:23:37.890Z,0.73
2023-04-01T03:26:40.338Z,0.63
2023-04-01T03:29:42.709Z,3.83
2023-04-01T03:32:45.397Z,1.17
2023-04-01T03:35:47.752Z,1.10
2023-04-01T03:38:53.406Z,1.30
2023-04-01T03:42:02.941Z,0.95
2023-04-01T03:45:06.375Z,1.17
2023-04-01T03:48:08.789Z,1.00
2023-04-01T03:51:11.045Z,1.35
2023-04-01T03:54:13.415Z,1.20
2023-04-01T03:57:15.735Z,1.10
2023-04-01T04:00:18.284Z,1.30
2023-04-01T04:03:27.365Z,0.60
2023-04-01T04:06:30.376Z,0.90
2023-04-01T04:09:33.090Z,0.80
2023-04-01T04:12:35.621Z,0.60
2023-04-01T04:15:37.841Z,0.90
2023-04-01T04:18:42.719Z,0.60
2023-04-01T04:21:45.201Z,0.70
2023-04-01T04:24:47.606Z,0.52
2023-04-01T04:27:50.660Z,0.55
2023-04-01T04:30:53.657Z,0.70
2023-04-01T04:33:56.376Z,0.63
2023-04-01T04:36:58.698Z,0.98
2023-04-01T04:40:06.310Z,1.02
2023-04-01T04:43:12.443Z,1.20
2023-04-01T04:46:14.939Z,1.20
2023-04-01T04:49:17.687Z,1.30
2023-04-01T04:52:20.019Z,1.05
2023-04-01T04:55:22.302Z,1.90
2023-04-01T04:58:34.830Z,2.78
2023-04-01T05:01:37.878Z,2.23
2023-04-01T05:04:40.482Z,1.70
2023-04-01T05:07:45.433Z,1.70
2023-04-01T05:10:48.266Z,2.95
2023-04-01T05:13:51.607Z,7.88
2023-04-01T05:16:55.446Z,6.90
2023-04-01T05:19:58.453Z,6.45
2023-04-01T05:23:02.057Z,10.65
2023-04-01T05:26:11.630Z,12.10
2023-04-01T05:29:14.014Z,14.10
2023-04-01T05:32:17.500Z,5.00
2023-04-01T05:35:19.811Z,1.75
2023-04-01T05:38:22.696Z,1.10
2023-04-01T05:41:25.765Z,0.80
2023-04-01T05:44:28.094Z,1.02
2023-04-01T05:47:50.439Z,0.80
2023-04-01T05:50:53.635Z,0.88
2023-04-01T05:53:55.871Z,0.80
2023-04-01T05:56:58.116Z,0.85
2023-04-01T06:00:00.474Z,1.25
2023-04-01T06:03:03.004Z,1.20
2023-04-01T06:06:16.636Z,0.90
2023-04-01T06:09:26.773Z,1.00
2023-04-01T06:12:43.223Z,0.52
2023-04-01T06:16:14.953Z,0.50
2023-04-01T06:19:39.864Z,0.63
2023-04-01T06:22:57.831Z,1.33
2023-04-01T06:26:17.893Z,0.75
2023-04-01T06:29:39.281Z,0.75
2023-04-01T06:33:23.479Z,0.70
2023-04-01T06:36:38.803Z,0.90
2023-04-01T06:39:53.396Z,0.90
2023-04-01T06:43:02.095Z,1.00
2023-04-01T06:46:50.559Z,0.80
2023-04-01T06:50:36.146Z,0.98
2023-04-01T06:54:10.328Z,0.70
2023-04-01T06:57:56.351Z,1.13
2023-04-01T07:01:03.790Z,0.75
2023-04-01T07:04:17.590Z,1.13
2023-04-01T07:07:38.901Z,0.90
2023-04-01T07:10:44.897Z,1.00
2023-04-01T07:14:26.784Z,0.70
2023-04-01T07:17:33.836Z,0.80
2023-04-01T07:20:39.841Z,0.70
2023-04-01T07:23:46.748Z,0.98
2023-04-01T07:27:12.917Z,0.80
2023-04-01T07:30:22.321Z,0.80
2023-04-01T07:33:45.425Z,0.80
2023-04-01T07:36:55.463Z,1.08
2023-04-01T07:40:13.204Z,0.95
2023-04-01T07:43:51.803Z,0.87
2023-04-01T07:47:27.964Z,0.93
2023-04-01T07:50:33.880Z,0.80
2023-04-01T07:53:50.462Z,0.90
2023-04-01T07:57:03.273Z,0.75
2023-04-01T08:00:50.187Z,0.90
2023-04-01T08:04:24.720Z,1.02
2023-04-01T08:07:37.502Z,0.90
2023-04-01T08:11:02.831Z,0.90
2023-04-01T08:14:26.629Z,0.93
2023-04-01T08:17:59.247Z,0.67
2023-04-01T08:21:37.884Z,1.10
2023-04-01T08:24:50.721Z,1.15
2023-04-01T08:28:17.077Z,0.75
2023-04-01T08:31:41.458Z,0.75
2023-04-01T08:34:49.344Z,0.70
2023-04-01T08:38:22.702Z,0.50
2023-04-01T08:41:34.068Z,0.70
2023-04-01T08:45:28.537Z,0.35
2023-04-01T08:48:48.037Z,0.43
2023-04-01T08:51:59.888Z,0.50
2023-04-01T08:55:45.375Z,0.70
2023-04-01T08:59:11.973Z,0.50
2023-04-01T09:02:28.152Z,0.60
2023-04-01T09:05:46.677Z,0.70
2023-04-01T09:09:07.017Z,0.90
2023-04-01T09:13:08.291Z,0.73
2023-04-01T09:16:36.902Z,0.90
2023-04-01T09:20:01.047Z,1.17
2023-04-01T09:23:06.914Z,2.85
2023-04-01T09:26:29.094Z,0.90
2023-04-01T09:29:44.330Z,0.93
2023-04-01T09:32:58.744Z,1.20
2023-04-01T09:36:06.417Z,6.85
2023-04-01T09:39:38.471Z,1.30
2023-04-01T09:43:04.773Z,1.50
2023-04-01T09:46:51.765Z,1.25
2023-04-01T09:50:13.403Z,1.38
2023-04-01T09:53:29.716Z,2.28
2023-04-01T09:56:44.150Z,9.13
2023-04-01T10:00:08.121Z,1.37
2023-04-01T10:03:40.871Z,9.10
2023-04-01T10:07:37.517Z,10.65
2023-04-01T10:10:52.303Z,14.23
2023-04-01T10:14:07.816Z,2.35
2023-04-01T10:17:34.841Z,9.10
2023-04-01T10:21:16.034Z,1.98
2023-04-01T10:24:31.672Z,5.72
2023-04-01T10:27:41.243Z,4.32
2023-04-01T10:31:33.324Z,2.20
2023-04-01T10:35:03.263Z,2.30
2023-04-01T10:38:36.578Z,3.75
2023-04-01T10:42:03.351Z,2.42
2023-04-01T10:45:49.227Z,3.67
2023-04-01T10:49:16.461Z,2.22
2023-04-01T10:52:35.983Z,1.80
2023-04-01T10:56:10.998Z,3.50
2023-04-01T11:00:25.891Z,7.07
2023-04-01T11:04:12.484Z,2.75
2023-04-01T11:07:36.414Z,3.03
2023-04-01T11:11:14.828Z,1.80
2023-04-01T11:14:49.113Z,2.40
2023-04-01T11:18:34.510Z,1.02
2023-04-01T11:21:42.625Z,0.93
2023-04-01T11:25:22.498Z,0.60
2023-04-01T11:29:05.670Z,1.10
2023-04-01T11:32:29.978Z,0.95
2023-04-01T11:35:53.822Z,0.77
2023-04-01T11:39:16.023Z,0.90
2023-04-01T11:43:33.594Z,0.95
2023-04-01T11:47:22.638Z,0.77
2023-04-01T11:50:54.218Z,1.00
2023-04-01T11:54:20.985Z,1.08
2023-04-01T11:57:41.971Z,0.80
2023-04-01T12:01:08.055Z,1.40
2023-04-01T12:04:29.113Z,1.60
2023-04-01T12:07:45.363Z,1.15
2023-04-01T12:11:06.607Z,0.80
2023-04-01T12:14:33.892Z,0.80
2023-04-01T12:18:16.413Z,0.80
2023-04-01T12:21:38.468Z,1.10
2023-04-01T12:25:02.582Z,0.90
2023-04-01T12:28:33.532Z,0.60
2023-04-01T12:32:08.800Z,1.02
2023-04-01T12:35:38.377Z,1.13
2023-04-01T12:38:49.682Z,0.87
2023-04-01T12:42:04.089Z,0.90
2023-04-01T12:45:30.650Z,0.90
2023-04-01T12:49:07.634Z,0.82
2023-04-01T12:52:36.133Z,0.90
2023-04-01T12:55:44.204Z,0.50
2023-04-01T12:59:05.641Z,0.70
2023-04-01T13:02:15.410Z,0.63
2023-04-01T13:05:48.060Z,0.75
2023-04-01T13:09:08.282Z,0.85
2023-04-01T13:12:32.216Z,0.97
2023-04-01T13:15:37.617Z,0.50
2023-04-01T13:18:58.918Z,0.60
2023-04-01T13:22:07.803Z,0.70
2023-04-01T13:25:37.614Z,0.52
2023-04-01T13:28:57.259Z,0.50
2023-04-01T13:32:40.872Z,0.45
2023-04-01T13:36:08.884Z,0.75
2023-04-01T13:39:37.334Z,0.55
2023-04-01T13:42:46.725Z,0.32
2023-04-01T13:45:49.160Z,0.70
2023-04-01T13:49:25.053Z,0.50
2023-04-01T13:52:32.847Z,0.30
2023-04-01T13:56:16.828Z,0.50
2023-04-01T13:59:27.941Z,0.50
2023-04-01T14:02:36.452Z,0.90
2023-04-01T14:06:13.772Z,0.80
2023-04-01T14:09:31.184Z,1.17
2023-04-01T14:12:53.658Z,0.93
2023-04-01T14:16:25.518Z,0.82
2023-04-01T14:19:52.925Z,0.50
2023-04-01T14:23:20.269Z,1.40
2023-04-01T14:26:43.854Z,1.10
2023-04-01T14:30:01.211Z,0.77
2023-04-01T14:33:29.555Z,0.50
2023-04-01T14:36:56.609Z,0.80
2023-04-01T14:40:24.344Z,0.70
2023-04-01T14:43:54.264Z,0.90
2023-04-01T14:47:15.074Z,0.60
2023-04-01T14:50:23.706Z,0.70
2023-04-01T14:53:39.897Z,0.60
2023-04-01T14:56:45.958Z,0.52
2023-04-01T14:59:51.233Z,0.73
2023-04-01T15:03:04.851Z,0.43
2023-04-01T15:06:49.915Z,0.70
2023-04-01T15:10:09.140Z,1.00
2023-04-01T15:13:50.421Z,0.90
2023-04-01T15:17:00.450Z,0.98
2023-04-01T15:20:26.694Z,0.82
2023-04-01T15:23:38.555Z,0.65
2023-04-01T15:27:05.783Z,0.57
2023-04-01T15:30:37.460Z,0.95
2023-04-01T15:33:48.529Z,0.60
2023-04-01T15:37:20.951Z,0.40
2023-04-01T15:40:46.586Z,0.50
2023-04-01T15:43:53.247Z,0.57
2023-04-01T15:46:58.986Z,0.65
2023-04-01T15:50:40.745Z,0.35
2023-04-01T15:53:48.662Z,0.50
2023-04-01T15:56:55.613Z,0.47
2023-04-01T16:00:09.955Z,0.50
2023-04-01T16:03:24.148Z,0.57
2023-04-01T16:06:48.195Z,0.85
2023-04-01T16:09:58.050Z,0.45
2023-04-01T16:13:20.595Z,0.55
2023-04-01T16:16:55.237Z,0.60
2023-04-01T16:20:14.371Z,0.50
2023-04-01T16:23:38.452Z,0.50
2023-04-01T16:27:04.696Z,0.30
2023-04-01T16:31:04.760Z,0.40
2023-04-01T16:34:28.380Z,0.60
2023-04-01T16:37:37.268Z,0.50
2023-04-01T16:40:48.612Z,0.57
2023-04-01T16:43:56.498Z,0.47
2023-04-01T16:47:08.763Z,0.47
2023-04-01T16:50:26.314Z,0.37
2023-04-01T16:53:48.694Z,0.50
2023-04-01T16:57:17.314Z,0.60
2023-04-01T17:00:39.362Z,0.50
2023-04-01T17:03:46.883Z,0.60
2023-04-01T17:07:00.437Z,0.60
2023-04-01T17:10:38.453Z,0.77
2023-04-01T17:13:59.641Z,0.70
2023-04-01T17:17:20.425Z,0.77
2023-04-01T17:20:41.038Z,0.50
2023-04-01T17:23:55.854Z,0.63
2023-04-01T17:27:08.389Z,0.50
2023-04-01T17:30:34.094Z,0.60
2023-04-01T17:34:06.496Z,0.50
2023-04-01T17:37:29.521Z,0.70
2023-04-01T17:40:36.866Z,0.40
2023-04-01T17:43:51.549Z,0.47
2023-04-01T17:47:12.946Z,0.50
2023-04-01T17:50:17.846Z,0.50
2023-04-01T17:53:34.983Z,0.90
2023-04-01T17:56:53.824Z,0.73
2023-04-01T18:00:12.797Z,1.20
2023-04-01T18:03:43.022Z,3.10
2023-04-01T18:07:08.711Z,2.97
2023-04-01T18:10:32.757Z,1.80
2023-04-01T18:13:46.877Z,1.07
2023-04-01T18:17:14.562Z,1.13
2023-04-01T18:20:52.170Z,1.50
2023-04-01T18:24:15.728Z,1.45
2023-04-01T18:27:46.997Z,1.80
2023-04-01T18:31:11.101Z,1.87
2023-04-01T18:34:28.594Z,2.20
2023-04-01T18:38:13.804Z,1.77
2023-04-01T18:41:37.409Z,1.90
2023-04-01T18:44:49.243Z,2.25
2023-04-01T18:48:09.602Z,2.13
2023-04-01T18:51:18.698Z,2.67
2023-04-01T18:54:28.263Z,1.95
2023-04-01T18:58:12.301Z,2.25
2023-04-01T19:01:17.499Z,6.40
2023-04-01T19:04:24.726Z,11.43
2023-04-01T19:07:48.002Z,8.32
2023-04-01T19:11:23.199Z,6.50
2023-04-01T19:14:40.658Z,3.35
2023-04-01T19:18:19.907Z,2.65
2023-04-01T19:21:48.860Z,2.63
2023-04-01T19:24:51.229Z,2.70
2023-04-01T19:28:02.446Z,2.63
2023-04-01T19:31:21.826Z,2.72
2023-04-01T19:34:54.157Z,2.45
2023-04-01T19:38:16.841Z,2.63
2023-04-01T19:41:36.435Z,2.30
2023-04-01T19:44:59.950Z,2.50
2023-04-01T19:48:19.612Z,2.50
2023-04-01T19:51:36.760Z,2.63
2023-04-01T19:54:50.640Z,2.60
2023-04-01T19:58:06.553Z,2.78
2023-04-01T20:01:16.197Z,2.80
2023-04-01T20:04:27.360Z,2.67
2023-04-01T20:08:19.199Z,2.70
2023-04-01T20:11:46.180Z,2.30
2023-04-01T20:14:52.234Z,2.47
2023-04-01T20:17:59.241Z,1.77
2023-04-01T20:21:32.830Z,1.58
2023-04-01T20:24:47.130Z,2.05
2023-04-01T20:28:11.062Z,1.60
2023-04-01T20:31:32.067Z,1.85
2023-04-01T20:35:00.053Z,1.83
2023-04-01T20:38:13.979Z,2.22
2023-04-01T20:41:23.028Z,2.35
2023-04-01T20:44:46.127Z,1.90
2023-04-01T20:48:06.602Z,2.10
2023-04-01T20:51:25.758Z,2.30
2023-04-01T20:54:44.986Z,2.30
2023-04-01T20:58:11.581Z,1.85
2023-04-01T21:01:23.501Z,1.67
2023-04-01T21:04:29.632Z,1.80
2023-04-01T21:07:53.367Z,1.80
2023-04-01T21:11:02.548Z,2.28
2023-04-01T21:14:10.757Z,2.00
2023-04-01T21:17:48.364Z,1.67
2023-04-01T21:20:58.324Z,1.90
2023-04-01T21:24:09.715Z,1.98
2023-04-01T21:27:30.513Z,1.90
2023-04-01T21:31:11.346Z,2.30
2023-04-01T21:34:19.663Z,2.10
2023-04-01T21:37:54.859Z,2.40
2023-04-01T21:40:57.141Z,1.88
2023-04-01T21:44:23.295Z,2.05
2023-04-01T21:47:43.968Z,2.30
2023-04-01T21:50:54.955Z,2.37
2023-04-01T21:54:09.060Z,2.00
2023-04-01T21:57:29.045Z,2.45
2023-04-01T22:00:55.233Z,2.30
2023-04-01T22:04:43.867Z,2.72
2023-04-01T22:07:54.996Z,2.47
2023-04-01T22:11:33.576Z,2.20
2023-04-01T22:14:50.896Z,2.00
2023-04-01T22:18:04.365Z,2.15
2023-04-01T22:21:10.879Z,1.98
2023-04-01T22:24:22.977Z,1.77
2023-04-01T22:27:58.497Z,2.20
2023-04-01T22:31:02.575Z,2.20
2023-04-01T22:34:19.126Z,2.30
2023-04-01T22:37:26.082Z,2.10
2023-04-01T22:40:31.170Z,2.00
2023-04-01T22:43:42.743Z,1.95
2023-04-01T22:47:00.469Z,2.10
2023-04-01T22:50:23.076Z,2.30
2023-04-01T22:53:47.472Z,2.00
2023-04-01T22:56:56.148Z,1.83
2023-04-01T23:00:20.127Z,2.38
2023-04-01T23:03:34.154Z,2.10
2023-04-01T23:06:42.435Z,1.80
2023-04-01T23:09:45.116Z,1.67
2023-04-01T23:12:50.171Z,1.73
2023-04-01T23:15:54.960Z,1.40
2023-04-01T23:19:02.794Z,1.20
2023-04-01T23:22:26.370Z,1.30
2023-04-01T23:25:47.341Z,1.25
2023-04-01T23:28:51.803Z,1.10
2023-04-01T23:32:05.382Z,1.48
2023-04-01T23:35:18.004Z,1.30
2023-04-01T23:38:23.411Z,1.17
2023-04-01T23:41:32.513Z,1.15
2023-04-01T23:44:37.216Z,1.13
2023-04-01T23:47:41.865Z,1.00
2023-04-01T23:50:46.238Z,1.00
2023-04-01T23:54:11.749Z,1.10
2023-04-01T23:57:19.069Z,1.08
